createdAt,value
2018-01-17T00:00:28.684Z,90.8
2018-01-17T00:01:38.753Z,90.8
2018-01-17T00:02:48.806Z,90.51
2018-01-17T00:03:58.851Z,91.17
2018-01-17T00:05:08.749Z,91.27
2018-01-17T00:06:18.608Z,91.08
2018-01-17T00:07:28.647Z,90.61
2018-01-17T00:08:38.433Z,91.08
2018-01-17T00:09:48.501Z,91.08
2018-01-17T00:10:58.302Z,91.27
2018-01-17T00:12:08.399Z,90.8
2018-01-17T00:13:18.693Z,90.89
2018-01-17T00:14:28.750Z,90.89
2018-01-17T00:15:38.547Z,90.8
2018-01-17T00:16:48.596Z,90.8
2018-01-17T00:17:58.133Z,90.8
2018-01-17T00:19:08.186Z,90.99
2018-01-17T00:20:17.976Z,90.99
2018-01-17T00:21:28.039Z,90.7
2018-01-17T00:22:37.840Z,90.8
2018-01-17T00:23:47.683Z,90.99
2018-01-17T00:24:57.729Z,90.99
2018-01-17T00:26:07.509Z,90.99
2018-01-17T00:27:17.310Z,90.99
2018-01-17T00:28:27.369Z,90.94
2018-01-17T00:29:37.201Z,90.66
2018-01-17T00:30:47.240Z,90.75
2018-01-17T00:31:57.031Z,91.03
2018-01-17T00:33:07.075Z,90.94
2018-01-17T00:34:17.111Z,90.94
2018-01-17T00:35:27.159Z,90.94
2018-01-17T00:36:37.755Z,90.75
2018-01-17T00:37:47.282Z,91.03
2018-01-17T00:38:57.334Z,90.75
2018-01-17T00:40:07.141Z,90.89
2018-01-17T00:41:17.212Z,90.89
2018-01-17T00:42:27.254Z,90.61
2018-01-17T00:43:37.289Z,90.99
2018-01-17T00:44:47.331Z,90.99
2018-01-17T00:45:57.370Z,90.8
2018-01-17T00:47:07.428Z,91.18
2018-01-17T00:48:17.207Z,90.52
2018-01-17T00:49:27.310Z,90.61
2018-01-17T00:50:37.358Z,90.52
2018-01-17T00:51:47.419Z,90.33
2018-01-17T00:52:57.205Z,90.52
2018-01-17T00:54:06.998Z,90.7
2018-01-17T00:55:17.031Z,90.42
2018-01-17T00:56:27.068Z,90.23
2018-01-17T00:57:36.593Z,90.61
2018-01-17T00:58:46.426Z,90.52
2018-01-17T00:59:56.211Z,90.61
2018-01-17T01:01:06.264Z,90.56
2018-01-17T01:02:16.317Z,90.66
2018-01-17T01:03:26.091Z,90.37
2018-01-17T01:04:35.678Z,90.33
2018-01-17T01:05:45.718Z,90.28
2018-01-17T01:06:55.758Z,90.09
2018-01-17T01:08:05.818Z,90.37
2018-01-17T01:09:15.875Z,89.9
2018-01-17T01:10:25.974Z,89.52
2018-01-17T01:11:36.019Z,90.56
2018-01-17T01:12:46.664Z,90.37
2018-01-17T01:13:56.457Z,90.28
2018-01-17T01:15:06.512Z,90.28
2018-01-17T01:16:16.550Z,90.19
2018-01-17T01:17:26.595Z,90.19
2018-01-17T01:18:36.625Z,89.8
2018-01-17T01:19:46.791Z,90.09
2018-01-17T01:20:56.338Z,90.19
2018-01-17T01:22:06.439Z,90.09
2018-01-17T01:23:16.235Z,90.19
2018-01-17T01:24:26.284Z,90.28
2018-01-17T01:25:35.815Z,90.28
2018-01-17T01:26:45.657Z,90.28
2018-01-17T01:27:55.234Z,90.19
2018-01-17T01:29:05.293Z,90.09
2018-01-17T01:30:15.346Z,90
2018-01-17T01:31:25.399Z,90.09
2018-01-17T01:32:35.441Z,90.09
2018-01-17T01:33:45.257Z,89.9
2018-01-17T01:34:55.293Z,90
2018-01-17T01:36:05.342Z,90
2018-01-17T01:37:15.142Z,90.28
2018-01-17T01:38:24.929Z,90.28
2018-01-17T01:39:35.036Z,90.09
2018-01-17T01:40:45.079Z,90.09
2018-01-17T01:41:54.878Z,90.19
2018-01-17T01:43:04.934Z,90
2018-01-17T01:44:14.718Z,90.28
2018-01-17T01:45:24.589Z,90.09
2018-01-17T01:46:34.642Z,90.09
2018-01-17T01:47:44.680Z,90.28
2018-01-17T01:48:54.732Z,90.09
2018-01-17T01:50:04.524Z,90.19
2018-01-17T01:51:14.575Z,90.19
2018-01-17T01:52:24.343Z,90.28
2018-01-17T01:57:38.239Z,90
2018-01-17T01:58:48.299Z,90
2018-01-17T01:59:58.077Z,90
2018-01-17T02:01:08.131Z,90.28
2018-01-17T02:02:18.184Z,90.19
2018-01-17T02:03:28.223Z,90.09
2018-01-17T02:04:38.012Z,90.19
2018-01-17T02:05:47.547Z,90.19
2018-01-17T02:06:57.352Z,90.19
2018-01-17T02:08:07.545Z,90
2018-01-17T02:09:17.336Z,90
2018-01-17T02:10:27.138Z,90.19
2018-01-17T02:11:37.180Z,90
2018-01-17T02:12:47.236Z,90
2018-01-17T02:13:57.308Z,90.19
2018-01-17T02:15:07.400Z,90.28
2018-01-17T02:16:17.448Z,90.09
2018-01-17T02:17:27.244Z,90.19
2018-01-17T02:18:37.033Z,90.19
2018-01-17T02:19:47.091Z,90.19
2018-01-17T02:20:56.931Z,90.19
2018-01-17T02:22:06.973Z,90
2018-01-17T02:23:16.756Z,90
2018-01-17T02:24:26.545Z,90.19
2018-01-17T02:25:36.596Z,90.09
2018-01-17T02:26:46.682Z,90.09
2018-01-17T02:27:56.740Z,90.09
2018-01-17T02:29:06.790Z,90.09
2018-01-17T02:30:16.573Z,90.19
2018-01-17T02:31:26.609Z,90.09
2018-01-17T02:32:36.705Z,90.09
2018-01-17T02:33:46.765Z,89.9
2018-01-17T02:34:56.547Z,90.09
2018-01-17T02:36:06.607Z,90
2018-01-17T02:37:16.414Z,90.09
2018-01-17T02:38:26.255Z,89.9
2018-01-17T02:39:36.043Z,89.9
2018-01-17T02:40:46.097Z,90.19
2018-01-17T02:41:55.889Z,89.8
2018-01-17T02:43:05.958Z,90.09
2018-01-17T02:44:16.070Z,89.9
2018-01-17T02:45:26.121Z,90
2018-01-17T02:46:36.167Z,90.09
2018-01-17T02:47:46.000Z,89.9
2018-01-17T02:48:55.776Z,90.09
2018-01-17T02:50:06.281Z,89.9
2018-01-17T02:51:16.349Z,90
2018-01-17T02:52:26.408Z,90.37
2018-01-17T02:53:36.442Z,89.9
2018-01-17T02:54:46.500Z,90.09
2018-01-17T02:55:56.607Z,90
2018-01-17T02:57:06.477Z,90.09
2018-01-17T02:58:16.525Z,89.9
2018-01-17T02:59:26.053Z,89.9
2018-01-17T03:00:35.847Z,90.09
2018-01-17T03:01:45.915Z,90.28
2018-01-17T03:02:55.701Z,90.19
2018-01-17T03:34:32.999Z,85.93
2018-01-17T03:35:42.887Z,86.3
2018-01-17T03:36:52.919Z,87.73
2018-01-17T03:38:03.465Z,88.48
2018-01-17T03:39:13.517Z,89.72
2018-01-17T03:40:23.574Z,90
2018-01-17T03:41:33.679Z,90
2018-01-17T03:42:43.731Z,90.48
2018-01-17T03:43:53.782Z,90.86
2018-01-17T03:45:03.826Z,91.33
2018-01-17T03:46:13.867Z,91.05
2018-01-17T03:47:23.967Z,90.71
2018-01-17T03:48:33.807Z,90.81
2018-01-17T03:49:43.847Z,91.09
2018-01-17T03:50:53.880Z,91.38
2018-01-17T03:52:03.396Z,91.28
2018-01-17T03:53:13.441Z,90.62
2018-01-17T03:54:23.254Z,90.71
2018-01-17T03:55:33.287Z,90.71
2018-01-17T03:56:43.338Z,90.76
2018-01-17T03:57:53.368Z,90.57
2018-01-17T03:59:03.220Z,90.47
2018-01-17T04:00:13.252Z,90.66
2018-01-17T04:01:23.290Z,90.95
2018-01-17T04:02:33.352Z,90.85
2018-01-17T04:03:43.408Z,90.95
2018-01-17T04:04:53.456Z,90.19
2018-01-17T04:06:03.226Z,90.19
2018-01-17T04:07:13.023Z,90.38
2018-01-17T04:08:23.077Z,90.38
2018-01-17T04:09:33.156Z,90.19
2018-01-17T04:10:43.257Z,90.09
2018-01-17T04:11:53.412Z,90.28
2018-01-17T04:13:03.211Z,90.28
2018-01-17T04:14:13.303Z,90.33
2018-01-17T04:15:22.818Z,90.23
2018-01-17T04:16:32.864Z,90.23
2018-01-17T04:17:42.910Z,90.61
2018-01-17T04:18:52.955Z,90.14
2018-01-17T04:20:02.485Z,90.23
2018-01-17T04:21:12.571Z,90.42
2018-01-17T04:22:22.406Z,90.33
2018-01-17T04:23:32.448Z,90.33
2018-01-17T04:24:42.930Z,90.23
2018-01-17T04:25:53.382Z,90.33
2018-01-17T04:27:03.443Z,90.42
2018-01-17T04:28:13.297Z,90.14
2018-01-17T04:29:23.088Z,90.05
2018-01-17T04:30:33.134Z,90.14
2018-01-17T04:31:42.931Z,90.23
2018-01-17T04:32:52.966Z,90.14
2018-01-17T04:34:02.764Z,90.52
2018-01-17T04:35:12.543Z,90.14
2018-01-17T04:36:22.333Z,90.14
2018-01-17T04:37:32.380Z,90.09
2018-01-17T04:38:42.175Z,90.23
2018-01-17T04:39:51.962Z,90.23
2018-01-17T04:41:02.006Z,90.71
2018-01-17T04:42:12.055Z,90.23
2018-01-17T04:43:22.126Z,90.71
2018-01-17T04:44:31.910Z,90.61
2018-01-17T04:45:42.017Z,90.14
2018-01-17T04:46:52.087Z,89.47
2018-01-17T04:48:02.126Z,90.33
2018-01-17T04:49:12.190Z,90.47
2018-01-17T04:50:22.234Z,90.47
2018-01-17T04:51:32.329Z,90.52
2018-01-17T04:52:42.376Z,90.33
2018-01-17T04:53:52.408Z,90.33
2018-01-17T04:55:02.204Z,89.86
2018-01-17T04:56:12.717Z,90.52
2018-01-17T04:57:22.739Z,90.47
2018-01-17T04:58:32.782Z,90.33
2018-01-17T04:59:42.842Z,90.61
2018-01-17T05:00:52.874Z,90.23
2018-01-17T05:02:02.661Z,90.23
2018-01-17T05:03:12.696Z,90.23
2018-01-17T05:04:22.772Z,90.61
2018-01-17T05:05:32.828Z,90.23
2018-01-17T05:06:42.872Z,90.42
2018-01-17T05:07:52.430Z,90.23
2018-01-17T05:09:02.261Z,89.86
2018-01-17T05:10:12.296Z,89.95
2018-01-17T05:11:22.350Z,89.86
2018-01-17T05:12:32.402Z,89.95
2018-01-17T05:13:42.455Z,90.14
2018-01-17T05:14:52.511Z,90.23
2018-01-17T05:16:02.576Z,89.86
2018-01-17T05:17:12.630Z,90.05
2018-01-17T05:18:22.144Z,89.95
2018-01-17T05:19:31.929Z,90.05
2018-01-17T05:20:42.036Z,90.05
2018-01-17T05:21:52.085Z,90.05
2018-01-17T05:23:02.128Z,89.95
2018-01-17T05:24:12.184Z,90.05
2018-01-17T05:25:21.971Z,89.95
2018-01-17T05:26:31.854Z,90.05
2018-01-17T05:27:41.114Z,89.76
2018-01-17T05:28:51.156Z,89.67
2018-01-17T05:30:00.945Z,89.95
2018-01-17T05:31:11.025Z,89.76
2018-01-17T05:32:21.072Z,89.76
2018-01-17T05:33:31.110Z,89.76
2018-01-17T05:34:41.152Z,89.67
2018-01-17T05:35:50.686Z,89.86
2018-01-17T05:37:00.483Z,90.14
2018-01-17T05:38:10.599Z,89.76
2018-01-17T05:39:20.650Z,89.76
2018-01-17T05:40:30.478Z,89.86
2018-01-17T05:41:40.535Z,89.57
2018-01-17T05:42:50.601Z,89.86
2018-01-17T05:44:00.444Z,89.95
2018-01-17T05:45:10.484Z,90.05
2018-01-17T05:46:20.544Z,89.67
2018-01-17T05:47:30.335Z,89.95
2018-01-17T05:48:40.375Z,90.14
2018-01-17T05:49:50.158Z,89.95
2018-01-17T05:51:00.202Z,89.67
2018-01-17T05:52:09.978Z,90.05
2018-01-17T05:53:20.029Z,89.67
2018-01-17T05:54:30.075Z,89.86
2018-01-17T05:55:40.188Z,90.14
2018-01-17T05:56:49.977Z,89.95
2018-01-17T05:57:59.764Z,89.86
2018-01-17T05:59:09.819Z,89.67
2018-01-17T06:00:19.617Z,90
2018-01-17T06:01:29.692Z,89.62
2018-01-17T06:02:39.779Z,89.53
2018-01-17T06:03:49.820Z,90
2018-01-17T06:04:59.872Z,89.72
2018-01-17T06:06:09.929Z,90
2018-01-17T06:07:19.708Z,89.72
2018-01-17T06:08:29.757Z,89.72
2018-01-17T06:09:39.542Z,89.62
2018-01-17T06:10:49.604Z,89.62
2018-01-17T06:11:59.687Z,89.81
2018-01-17T06:13:09.751Z,89.81
2018-01-17T06:14:20.157Z,89.81
2018-01-17T06:15:29.961Z,89.9
2018-01-17T06:16:39.759Z,89.72
2018-01-17T06:17:49.939Z,90.09
2018-01-17T06:18:59.971Z,89.81
2018-01-17T06:20:09.748Z,89.72
2018-01-17T06:21:19.537Z,90.09
2018-01-17T06:22:29.323Z,89.9
2018-01-17T06:23:39.379Z,90
2018-01-17T06:24:49.162Z,89.9
2018-01-17T06:25:58.957Z,89.9
2018-01-17T06:27:09.010Z,90
2018-01-17T06:28:19.065Z,89.9
2018-01-17T06:29:29.123Z,90
2018-01-17T06:30:39.262Z,89.62
2018-01-17T06:31:49.048Z,89.62
2018-01-17T06:32:59.734Z,90
2018-01-17T06:34:09.769Z,90
2018-01-17T06:35:19.811Z,89.9
2018-01-17T06:36:29.903Z,89.62
2018-01-17T06:37:39.955Z,89.81
2018-01-17T06:38:49.998Z,89.9
2018-01-17T06:40:00.071Z,89.62
2018-01-17T06:41:10.126Z,89.62
2018-01-17T06:42:20.269Z,89.62
2018-01-17T06:43:30.320Z,89.58
2018-01-17T06:44:40.371Z,89.9
2018-01-17T06:45:50.427Z,89.53
2018-01-17T06:47:00.484Z,89.9
2018-01-17T06:48:10.543Z,89.81
2018-01-17T06:49:20.579Z,89.29
2018-01-17T06:50:30.385Z,89.1
2018-01-17T06:51:40.446Z,89.58
2018-01-17T06:52:50.488Z,89.48
2018-01-17T06:54:00.321Z,89.39
2018-01-17T06:55:10.365Z,89.39
2018-01-17T06:56:20.403Z,89.29
2018-01-17T06:57:30.440Z,89.29
2018-01-17T06:58:40.524Z,88.91
2018-01-17T06:59:50.618Z,89
2018-01-17T07:01:00.136Z,89.1
2018-01-17T07:02:10.189Z,88.62
2018-01-17T07:03:19.970Z,88.72
2018-01-17T07:04:30.011Z,88.43
2018-01-17T07:05:40.062Z,88.72
2018-01-17T07:06:50.117Z,88.95
2018-01-17T07:08:00.164Z,88.57
2018-01-17T07:09:10.200Z,88.76
2018-01-17T07:10:20.243Z,88.48
2018-01-17T07:11:30.086Z,88.48
2018-01-17T07:12:40.132Z,88.29
2018-01-17T07:13:50.195Z,88.67
2018-01-17T07:15:00.237Z,88.1
2018-01-17T07:16:10.283Z,88.2
2018-01-17T07:17:20.052Z,88.48
2018-01-17T07:18:30.099Z,88.1
2018-01-17T07:19:40.133Z,87.82
2018-01-17T07:20:49.942Z,88.2
2018-01-17T07:21:59.985Z,88.57
2018-01-17T07:23:10.041Z,87.95
2018-01-17T07:24:20.096Z,87.86
2018-01-17T07:25:29.884Z,87.57
2018-01-17T07:26:39.673Z,87.29
2018-01-17T07:27:49.720Z,87.38
2018-01-17T07:28:59.816Z,87.24
2018-01-17T07:30:10.137Z,86.95
2018-01-17T07:31:20.187Z,86.67
2018-01-17T07:32:30.232Z,86.67
2018-01-17T07:33:39.759Z,87.05
2018-01-17T07:34:49.861Z,86.33
2018-01-17T07:35:59.928Z,86.43
2018-01-17T07:37:09.709Z,86.33
2018-01-17T07:38:19.750Z,86.52
2018-01-17T07:39:29.522Z,86.47
2018-01-17T07:40:39.685Z,86.76
2018-01-17T07:41:49.239Z,87.23
2018-01-17T07:42:59.302Z,87.52
2018-01-17T07:44:09.104Z,87.61
2018-01-17T07:45:19.157Z,87.52
2018-01-17T07:46:29.058Z,87.42
2018-01-17T07:47:39.116Z,87.04
2018-01-17T07:48:48.657Z,87.42
2018-01-17T07:49:58.445Z,87.99
2018-01-17T07:51:08.245Z,87.9
2018-01-17T07:52:18.298Z,87.8
2018-01-17T07:53:27.829Z,87.52
2018-01-17T07:54:37.508Z,87.9
2018-01-17T07:55:47.619Z,88.23
2018-01-17T07:56:57.410Z,87.61
2018-01-17T07:58:07.464Z,87.94
2018-01-17T07:59:17.526Z,87.85
2018-01-17T08:00:27.572Z,87.75
2018-01-17T08:01:37.630Z,87.65
2018-01-17T08:02:46.893Z,87.65
2018-01-17T08:03:57.047Z,87.94
2018-01-17T08:05:06.840Z,88.23
2018-01-17T08:06:16.643Z,88.42
2018-01-17T08:07:26.686Z,89.47
2018-01-17T08:08:36.737Z,88.75
2018-01-17T08:09:46.333Z,89.23
2018-01-17T08:10:56.133Z,89.61
2018-01-17T08:12:06.176Z,89.51
2018-01-17T08:13:15.963Z,89.61
2018-01-17T08:14:26.032Z,89.32
2018-01-17T08:15:35.562Z,89.61
2018-01-17T08:16:45.609Z,89.61
2018-01-17T08:17:55.658Z,89.7
2018-01-17T08:19:05.712Z,89.8
2018-01-17T08:20:15.776Z,89.7
2018-01-17T08:21:25.850Z,89.7
2018-01-17T08:22:35.369Z,89.61
2018-01-17T08:23:45.420Z,89.51
2018-01-17T08:24:55.201Z,89.61
2018-01-17T08:26:05.238Z,89.32
2018-01-17T08:27:15.373Z,89.61
2018-01-17T08:28:25.153Z,89.51
2018-01-17T08:29:34.955Z,88.94
2018-01-17T08:30:45.024Z,89.32
2018-01-17T08:31:55.077Z,88.85
2018-01-17T08:33:04.919Z,88.94
2018-01-17T08:34:14.640Z,88.94
2018-01-17T08:35:24.704Z,88.56
2018-01-17T08:36:34.484Z,88.85
2018-01-17T08:37:44.016Z,88.94
2018-01-17T08:38:54.183Z,88.37
2018-01-17T08:40:04.003Z,88.37
2018-01-17T08:41:14.057Z,88.42
2018-01-17T08:42:24.118Z,88.13
2018-01-17T08:43:34.162Z,88.04
2018-01-17T08:44:44.012Z,87.65
2018-01-17T08:45:54.074Z,87.75
2018-01-17T08:47:05.199Z,87.51
2018-01-17T08:48:15.277Z,87.41
2018-01-17T08:49:25.116Z,87.13
2018-01-17T08:50:35.161Z,87.23
2018-01-17T08:51:45.222Z,87.51
2018-01-17T08:52:55.265Z,86.69
2018-01-17T08:54:05.306Z,86.51
2018-01-17T08:55:14.825Z,86.32
2018-01-17T08:56:24.673Z,86.36
2018-01-17T08:57:34.256Z,86.45
2018-01-17T08:58:43.780Z,86.3
2018-01-17T08:59:53.583Z,86.78
2018-01-17T09:01:03.633Z,86.69
2018-01-17T09:02:13.444Z,86.98
2018-01-17T09:03:23.225Z,86.88
2018-01-17T09:04:33.262Z,87.26
2018-01-17T09:05:43.319Z,87.79
2018-01-17T09:06:53.375Z,87.12
2018-01-17T09:08:03.503Z,87.31
2018-01-17T09:09:13.570Z,87.4
2018-01-17T09:10:23.623Z,87.26
2018-01-17T09:11:33.671Z,87.07
2018-01-17T09:12:43.725Z,87.16
2018-01-17T09:13:53.882Z,86.49
2018-01-17T09:15:03.690Z,86.16
2018-01-17T09:16:13.750Z,85.87
2018-01-17T09:17:23.866Z,85.77
2018-01-17T09:18:33.914Z,85.53
2018-01-17T09:19:43.965Z,85.25
2018-01-17T09:20:54.072Z,85.25
2018-01-17T09:22:04.115Z,85.1
2018-01-17T09:23:13.905Z,85.67
2018-01-17T09:24:23.707Z,85
2018-01-17T09:25:33.517Z,85.05
2018-01-17T09:26:43.574Z,84.76
2018-01-17T09:27:53.631Z,84.76
2018-01-17T09:29:03.685Z,84.95
2018-01-17T09:30:13.726Z,85.14
2018-01-17T09:31:23.835Z,85.24
2018-01-17T09:32:33.888Z,85.86
2018-01-17T09:33:43.950Z,86.82
2018-01-17T09:34:54.004Z,87.54
2018-01-17T09:36:04.075Z,88.35
2018-01-17T09:37:13.931Z,89.07
2018-01-17T09:38:24.004Z,89.83
2018-01-17T09:39:33.276Z,89.89
2018-01-17T09:40:43.070Z,90.17
2018-01-17T09:41:53.118Z,89.79
2018-01-17T09:43:02.909Z,89.31
2018-01-17T09:44:12.696Z,89.12
2018-01-17T09:45:22.762Z,89.6
2018-01-17T09:46:32.848Z,89.55
2018-01-17T09:47:42.642Z,89.46
2018-01-17T09:48:52.485Z,90.03
2018-01-17T09:50:02.574Z,90.08
2018-01-17T09:51:12.612Z,90.22
2018-01-17T09:52:22.445Z,90.17
2018-01-17T09:53:32.501Z,90.08
2018-01-17T09:54:42.622Z,89.7
2018-01-17T09:55:52.673Z,89.89
2018-01-17T09:57:02.717Z,89.98
2018-01-17T09:58:12.797Z,89.7
2018-01-17T09:59:22.841Z,89.7
2018-01-17T10:00:32.901Z,89.03
2018-01-17T10:01:42.692Z,88.89
2018-01-17T10:02:52.481Z,88.98
2018-01-17T10:04:02.271Z,89.07
2018-01-17T10:05:12.066Z,89.46
2018-01-17T10:06:22.154Z,89.61
2018-01-17T10:07:31.956Z,89.51
2018-01-17T10:08:42.027Z,89.51
2018-01-17T10:09:52.060Z,90.17
2018-01-17T10:11:02.109Z,90.08
2018-01-17T10:12:11.949Z,90.13
2018-01-17T10:13:22.010Z,90.08
2018-01-17T10:14:32.057Z,89.98
2018-01-17T10:15:42.098Z,89.89
2018-01-17T10:16:52.154Z,89.7
2018-01-17T10:18:02.005Z,90.03
2018-01-17T10:19:12.054Z,89.65
2018-01-17T10:20:21.857Z,89.84
2018-01-17T10:21:31.423Z,89.84
2018-01-17T10:22:41.479Z,89.84
2018-01-17T10:23:51.588Z,90.03
2018-01-17T10:25:01.674Z,89.75
2018-01-17T10:26:11.764Z,90.18
2018-01-17T10:27:21.805Z,89.99
2018-01-17T10:28:31.654Z,90.08
2018-01-17T10:29:41.448Z,89.51
2018-01-17T10:30:51.506Z,89.04
2018-01-17T10:32:01.296Z,88.79
2018-01-17T10:33:11.355Z,88.56
2018-01-17T10:34:20.888Z,88.6
2018-01-17T10:35:30.935Z,88.6
2018-01-17T10:36:41.391Z,88.23
2018-01-17T10:37:51.448Z,87.65
2018-01-17T10:39:01.498Z,87.46
2018-01-17T10:40:11.568Z,87.08
2018-01-17T10:41:22.107Z,87.56
2018-01-17T10:42:32.335Z,87.94
2018-01-17T10:43:42.397Z,87.94
2018-01-17T10:44:52.193Z,87.85
2018-01-17T10:46:02.244Z,87.85
2018-01-17T10:47:12.343Z,87.85
2018-01-17T10:48:22.404Z,87.51
2018-01-17T10:49:32.469Z,87.32
2018-01-17T10:50:42.513Z,87.51
2018-01-17T10:51:52.575Z,87.6
2018-01-17T10:53:02.425Z,87.6
2018-01-17T10:54:12.473Z,87.32
2018-01-17T10:55:22.530Z,87.7
2018-01-17T10:56:32.579Z,87.13
2018-01-17T10:57:42.108Z,87.13
2018-01-17T10:58:53.214Z,87.74
2018-01-17T11:00:03.269Z,87.46
2018-01-17T11:01:13.330Z,87.41
2018-01-17T11:02:23.421Z,87.46
2018-01-17T11:03:33.468Z,87.93
2018-01-17T11:04:43.521Z,87.84
2018-01-17T11:05:53.568Z,87.89
2018-01-17T11:07:03.612Z,87.93
2018-01-17T11:08:13.672Z,87.65
2018-01-17T11:09:23.720Z,87.74
2018-01-17T11:10:33.236Z,87.55
2018-01-17T11:11:43.295Z,87.65
2018-01-17T11:12:53.637Z,87.93
2018-01-17T11:14:03.692Z,87.79
2018-01-17T11:15:13.748Z,87.7
2018-01-17T11:16:25.512Z,87.98
2018-01-17T11:17:38.670Z,87.79
2018-01-17T11:18:51.774Z,87.93
2018-01-17T11:20:01.824Z,88.12
2018-01-17T11:21:11.888Z,87.65
2018-01-17T11:22:22.891Z,87.55
2018-01-17T11:23:32.975Z,86.98
2018-01-17T11:24:43.558Z,86.98
2018-01-17T11:25:53.634Z,86.6
2018-01-17T11:27:03.689Z,86.74
2018-01-17T11:28:13.730Z,86.74
2018-01-17T11:29:23.823Z,86.74
2018-01-17T11:30:33.885Z,87.02
2018-01-17T11:31:43.694Z,86.07
2018-01-17T11:32:53.233Z,85.73
2018-01-17T11:34:03.331Z,85.35
2018-01-17T11:35:13.382Z,85.06
2018-01-17T11:36:23.427Z,85.01
2018-01-17T11:37:33.488Z,84.44
2018-01-17T11:38:43.297Z,84.63
2018-01-17T11:39:53.407Z,84.58
2018-01-17T11:41:03.570Z,84.58
2018-01-17T11:42:13.647Z,84.67
2018-01-17T11:43:23.437Z,84.67
2018-01-17T11:44:34.008Z,84.86
2018-01-17T11:45:44.082Z,85.05
2018-01-17T11:46:53.890Z,85.05
2018-01-17T11:48:03.712Z,84.96
2018-01-17T11:49:13.515Z,84.52
2018-01-17T11:50:23.600Z,84.33
2018-01-17T11:51:33.402Z,84.33
2018-01-17T11:52:43.484Z,84.72
2018-01-17T11:53:53.548Z,84.81
2018-01-17T11:55:03.648Z,84.72
2018-01-17T11:56:13.685Z,84.62
2018-01-17T11:57:23.773Z,85
2018-01-17T11:58:33.848Z,85.19
2018-01-17T11:59:44.764Z,85.29
2018-01-17T12:00:55.684Z,85.48
2018-01-17T12:02:05.768Z,85.19
2018-01-17T12:03:15.871Z,85.1
2018-01-17T12:04:26.676Z,86.15
2018-01-17T12:05:36.739Z,86.1
2018-01-17T12:06:46.802Z,86.58
2018-01-17T12:07:56.895Z,86.58
2018-01-17T12:09:06.704Z,86.63
2018-01-17T12:10:16.769Z,86.63
2018-01-17T12:11:26.878Z,87.21
2018-01-17T12:12:36.960Z,87.11
2018-01-17T12:13:47.248Z,88.21
2018-01-17T12:14:57.362Z,87.74
2018-01-17T12:16:07.422Z,87.64
2018-01-17T12:17:18.591Z,87.45
2018-01-17T12:18:28.654Z,86.98
2018-01-17T12:19:38.735Z,86.59
2018-01-17T12:20:48.875Z,86.11
2018-01-17T12:21:58.929Z,86.4
2018-01-17T12:23:08.993Z,86.59
2018-01-17T12:24:19.069Z,86.78
2018-01-17T12:25:29.145Z,87.35
2018-01-17T12:26:39.200Z,87.35
2018-01-17T12:27:48.982Z,87.26
2018-01-17T12:28:58.802Z,87.45
2018-01-17T12:30:08.590Z,87.07
2018-01-17T12:31:18.395Z,86.59
2018-01-17T12:32:28.244Z,86.49
2018-01-17T12:33:38.376Z,86.59
2018-01-17T12:34:48.457Z,86.4
2018-01-17T12:35:58.514Z,86.73
2018-01-17T12:37:07.786Z,86.06
2018-01-17T12:38:17.980Z,86.82
2018-01-17T12:39:28.078Z,86.82
2018-01-17T12:40:39.104Z,87.59
2018-01-17T12:41:50.871Z,87.26
2018-01-17T12:43:00.926Z,87.54
2018-01-17T12:44:10.765Z,87.45
2018-01-17T12:45:20.810Z,85.77
2018-01-17T12:46:30.871Z,85.34
2018-01-17T12:47:40.971Z,84.1
2018-01-17T12:48:50.769Z,85.19
2018-01-17T12:50:00.316Z,85.82
2018-01-17T12:51:10.181Z,86.54
2018-01-17T12:52:19.982Z,86.63
2018-01-17T12:53:30.877Z,87.16
2018-01-17T12:54:40.679Z,88.4
2018-01-17T12:55:50.755Z,89.12
2018-01-17T12:57:00.550Z,89.07
2018-01-17T12:58:10.619Z,89.65
2018-01-17T12:59:20.406Z,89.7
2018-01-17T13:00:30.216Z,90.46
2018-01-17T13:01:40.327Z,90.36
2018-01-17T13:02:50.399Z,89.51
2018-01-17T13:04:00.481Z,89.13
2018-01-17T13:05:10.554Z,88.84
2018-01-17T13:06:20.731Z,88.65
2018-01-17T13:07:32.303Z,88.84
2018-01-17T13:08:42.118Z,88.6
2018-01-17T13:09:52.252Z,88.99
2018-01-17T13:11:01.878Z,88.79
2018-01-17T13:12:11.802Z,88.99
2018-01-17T13:13:22.029Z,88.79
2018-01-17T13:14:32.206Z,89.08
2018-01-17T13:15:42.334Z,88.89
2018-01-17T13:16:52.231Z,88.89
2018-01-17T13:18:02.352Z,88.32
2018-01-17T13:19:12.243Z,88.66
2018-01-17T13:20:22.096Z,88.09
2018-01-17T13:21:32.715Z,88.23
2018-01-17T13:22:42.576Z,87.65
2018-01-17T13:23:52.696Z,86.99
2018-01-17T13:25:02.682Z,86.27
2018-01-17T13:26:12.872Z,85.55
2018-01-17T13:27:22.510Z,85.27
2018-01-17T13:28:32.633Z,84.98
2018-01-17T13:29:42.174Z,85.21
2018-01-17T13:30:52.279Z,85.21
2018-01-17T13:32:02.345Z,85.02
2018-01-17T13:33:12.404Z,85.41
2018-01-17T13:34:22.203Z,85.21
2018-01-17T13:35:32.300Z,85.78
2018-01-17T13:36:42.418Z,85.5
2018-01-17T13:37:52.483Z,85.69
2018-01-17T13:39:02.557Z,85.69
2018-01-17T13:40:12.631Z,85.88
2018-01-17T13:41:22.198Z,85.64
2018-01-17T13:42:32.318Z,85.83
2018-01-17T13:43:42.159Z,86.11
2018-01-17T13:44:52.275Z,86.55
2018-01-17T13:46:02.338Z,86.83
2018-01-17T13:47:12.136Z,86.93
2018-01-17T13:48:22.020Z,86.55
2018-01-17T13:49:32.157Z,87.6
2018-01-17T13:50:42.323Z,88.03
2018-01-17T13:51:52.200Z,87.93
2018-01-17T13:53:02.333Z,88.46
2018-01-17T13:54:12.471Z,88.51
2018-01-17T13:55:22.347Z,88.46
2018-01-17T13:56:32.482Z,88.46
2018-01-17T13:57:43.550Z,88.18
2018-01-17T13:58:53.358Z,88.08
2018-01-17T14:00:03.461Z,88.18
2018-01-17T14:01:13.517Z,88.65
2018-01-17T14:02:23.583Z,88.99
2018-01-17T14:03:33.653Z,89.08
2018-01-17T14:04:43.492Z,88.89
2018-01-17T14:05:53.595Z,88.79
2018-01-17T14:07:03.652Z,89.23
2018-01-17T14:08:13.915Z,89.42
2018-01-17T14:09:23.976Z,89.61
2018-01-17T14:10:33.784Z,89.32
2018-01-17T14:11:43.921Z,89.42
2018-01-17T14:12:53.971Z,88.56
2018-01-17T14:14:04.088Z,89.04
2018-01-17T14:15:13.953Z,88.85
2018-01-17T14:16:24.051Z,88.18
2018-01-17T14:17:34.194Z,87.42
2018-01-17T14:18:44.380Z,87.8
2018-01-17T14:19:54.208Z,87.52
2018-01-17T14:21:04.293Z,87.61
2018-01-17T14:22:14.788Z,87.8
2018-01-17T14:23:24.930Z,87.27
2018-01-17T14:24:34.887Z,87.56
2018-01-17T14:25:44.950Z,87.75
2018-01-17T14:26:55.021Z,87.9
2018-01-17T14:28:04.848Z,87.71
2018-01-17T14:29:14.999Z,87.94
2018-01-17T14:30:25.158Z,87.9
2018-01-17T14:31:35.270Z,87.61
2018-01-17T14:32:45.319Z,88.18
2018-01-17T14:33:55.391Z,88.37
2018-01-17T14:35:05.554Z,88.56
2018-01-17T14:36:15.354Z,88.37
2018-01-17T14:37:25.431Z,88.28
2018-01-17T14:38:35.474Z,88.56
2018-01-17T14:39:45.513Z,88.37
2018-01-17T14:40:55.097Z,88.56
2018-01-17T14:42:05.129Z,87.99
2018-01-17T14:43:15.211Z,88.18
2018-01-17T14:44:25.032Z,88.18
2018-01-17T14:45:35.090Z,88.66
2018-01-17T14:46:45.187Z,88.28
2018-01-17T14:47:56.884Z,88.46
2018-01-17T14:49:06.685Z,89.23
2018-01-17T14:50:16.748Z,88.85
2018-01-17T14:51:26.800Z,88.85
2018-01-17T14:52:36.929Z,88.94
2018-01-17T14:53:47.028Z,88.94
2018-01-17T14:54:57.114Z,89.18
2018-01-17T14:56:06.631Z,89.28
2018-01-17T14:57:16.420Z,89.18
2018-01-17T14:58:26.484Z,89.09
2018-01-17T14:59:36.281Z,89.09
2018-01-17T15:00:45.818Z,89.09
2018-01-17T15:01:55.884Z,89.09
2018-01-17T15:03:05.702Z,89.18
2018-01-17T15:04:15.811Z,89.18
2018-01-17T15:05:25.918Z,89
2018-01-17T15:06:35.699Z,89.04
2018-01-17T15:07:46.805Z,89.04
2018-01-17T15:08:56.912Z,88.95
2018-01-17T15:10:07.291Z,89.04
2018-01-17T15:11:17.355Z,89.14
2018-01-17T15:12:27.418Z,89.14
2018-01-17T15:13:37.509Z,89.04
2018-01-17T15:14:47.813Z,89.04
2018-01-17T15:15:57.992Z,88.85
2018-01-17T15:17:07.768Z,89.52
2018-01-17T15:18:17.884Z,89.33
2018-01-17T15:19:27.702Z,89.52
2018-01-17T15:20:37.761Z,89.33
2018-01-17T15:21:47.826Z,88.95
2018-01-17T15:22:57.893Z,89.04
2018-01-17T15:24:07.684Z,89.14
2018-01-17T15:25:17.743Z,88.95
2018-01-17T15:26:27.794Z,89.14
2018-01-17T15:27:37.856Z,88.95
2018-01-17T15:28:47.940Z,89.04
2018-01-17T15:29:57.992Z,88.95
2018-01-17T15:31:08.047Z,89.04
2018-01-17T15:32:18.125Z,89.14
2018-01-17T15:33:28.233Z,89.09
2018-01-17T15:34:38.293Z,89.14
2018-01-17T15:35:48.102Z,89.14
2018-01-17T15:36:57.922Z,89.23
2018-01-17T15:38:07.727Z,89.14
2018-01-17T15:39:17.826Z,89.04
2018-01-17T15:40:27.921Z,88.95
2018-01-17T15:41:37.758Z,89.33
2018-01-17T15:42:47.041Z,89.52